createdAt,value
2017-10-10T00:00:26.050Z,12.13
2017-10-10T00:02:52.648Z,11.93
2017-10-10T00:05:19.546Z,13.63
2017-10-10T00:07:46.137Z,13.20
2017-10-10T00:10:12.723Z,12.03
2017-10-10T00:12:39.339Z,13.10
2017-10-10T00:15:05.929Z,13.27
2017-10-10T00:17:32.527Z,13.07
2017-10-10T00:19:59.118Z,12.60
2017-10-10T00:22:25.718Z,13.43
2017-10-10T00:24:52.331Z,12.70
2017-10-10T00:27:18.927Z,13.00
2017-10-10T00:29:45.538Z,12.83
2017-10-10T00:32:12.146Z,12.20
2017-10-10T00:34:38.727Z,12.43
2017-10-10T00:37:05.323Z,12.70
2017-10-10T00:39:31.917Z,12.40
2017-10-10T00:41:58.746Z,12.70
2017-10-10T00:44:25.340Z,12.27
2017-10-10T00:46:51.922Z,12.40
2017-10-10T00:49:18.526Z,12.10
2017-10-10T00:51:45.151Z,12.00
2017-10-10T00:54:11.738Z,12.57
2017-10-10T00:56:38.336Z,12.23
2017-10-10T00:59:05.275Z,12.47
2017-10-10T01:01:31.875Z,12.10
2017-10-10T01:03:58.464Z,11.67
2017-10-10T01:06:25.062Z,12.80
2017-10-10T01:08:51.673Z,12.17
2017-10-10T01:11:18.272Z,11.07
2017-10-10T01:13:44.862Z,11.90
2017-10-10T01:16:11.450Z,11.17
2017-10-10T01:18:38.050Z,11.33
2017-10-10T01:21:04.639Z,11.20
2017-10-10T01:23:31.347Z,10.60
2017-10-10T01:25:57.930Z,12.20
2017-10-10T01:28:24.523Z,10.97
2017-10-10T01:30:51.114Z,11.17
2017-10-10T01:33:17.703Z,11.10
2017-10-10T01:35:44.414Z,10.73
2017-10-10T01:38:11.007Z,10.80
2017-10-10T01:40:37.600Z,10.97
2017-10-10T01:43:04.195Z,11.13
2017-10-10T01:45:30.782Z,10.47
2017-10-10T01:47:57.401Z,10.73
2017-10-10T01:50:23.997Z,10.50
2017-10-10T01:52:50.583Z,11.10
2017-10-10T01:55:17.285Z,9.70
2017-10-10T01:57:43.875Z,10.60
2017-10-10T02:00:10.472Z,10.13
2017-10-10T02:02:37.063Z,10.27
2017-10-10T02:05:03.678Z,10.37
2017-10-10T02:07:30.270Z,10.80
2017-10-10T02:09:56.858Z,10.10
2017-10-10T02:12:23.462Z,11.10
2017-10-10T02:14:50.058Z,11.07
2017-10-10T02:17:16.868Z,10.33
2017-10-10T02:19:43.458Z,10.50
2017-10-10T02:22:10.046Z,10.17
2017-10-10T02:24:36.647Z,11.13
2017-10-10T02:27:03.239Z,10.73
2017-10-10T02:29:29.830Z,11.13
2017-10-10T02:31:56.419Z,11.10
2017-10-10T02:34:23.030Z,11.87
2017-10-10T02:36:49.627Z,12.20
2017-10-10T02:39:16.219Z,11.73
2017-10-10T02:41:42.819Z,11.10
2017-10-10T02:44:09.406Z,12.33
2017-10-10T02:46:36.089Z,11.70
2017-10-10T02:49:02.670Z,11.90
2017-10-10T02:51:29.260Z,11.73
2017-10-10T02:53:55.863Z,11.60
2017-10-10T02:56:22.449Z,13.20
2017-10-10T02:58:49.046Z,13.53
2017-10-10T03:01:15.636Z,13.77
2017-10-10T03:03:42.223Z,12.73
2017-10-10T03:06:08.824Z,13.13
2017-10-10T03:08:35.411Z,13.63
2017-10-10T03:11:02.011Z,12.37
2017-10-10T03:13:28.598Z,13.10
2017-10-10T03:15:55.187Z,14.07
2017-10-10T03:18:21.787Z,12.80
2017-10-10T03:20:48.376Z,13.77
2017-10-10T03:23:14.975Z,12.77
2017-10-10T03:25:41.563Z,12.20
2017-10-10T03:28:08.153Z,14.13
2017-10-10T03:30:34.748Z,13.30
2017-10-10T03:33:01.370Z,14.17
2017-10-10T03:35:27.961Z,14.50
2017-10-10T03:37:54.550Z,14.40
2017-10-10T03:40:21.146Z,13.03
2017-10-10T03:42:47.755Z,14.60
2017-10-10T03:45:14.347Z,14.13
2017-10-10T03:47:40.946Z,14.33
2017-10-10T03:50:07.535Z,14.60
2017-10-10T03:52:34.140Z,14.13
2017-10-10T03:55:00.726Z,14.87
2017-10-10T03:57:27.406Z,14.17
2017-10-10T03:59:54.006Z,14.77
2017-10-10T04:02:20.611Z,14.23
2017-10-10T04:04:47.338Z,15.37
2017-10-10T04:07:14.048Z,14.00
2017-10-10T04:09:40.621Z,14.60
2017-10-10T04:12:07.230Z,14.10
2017-10-10T04:14:33.815Z,14.80
2017-10-10T04:17:00.653Z,14.60
2017-10-10T04:19:27.223Z,14.63
2017-10-10T04:21:53.811Z,14.27
2017-10-10T04:24:20.410Z,13.73
2017-10-10T04:26:46.998Z,14.30
2017-10-10T04:29:13.606Z,14.83
2017-10-10T04:31:40.198Z,14.90
2017-10-10T04:34:06.835Z,15.23
2017-10-10T04:36:33.439Z,15.13
2017-10-10T04:39:00.044Z,15.70
2017-10-10T04:41:26.618Z,15.30
2017-10-10T04:43:53.223Z,16.17
2017-10-10T04:46:19.794Z,15.80
2017-10-10T04:48:46.402Z,16.23
2017-10-10T04:51:12.986Z,15.90
2017-10-10T04:53:39.587Z,16.40
2017-10-10T04:56:06.182Z,15.23
2017-10-10T04:58:32.771Z,16.10
2017-10-10T05:00:59.370Z,16.40
2017-10-10T05:03:25.980Z,16.10
2017-10-10T05:05:52.879Z,15.60
2017-10-10T05:08:19.472Z,14.83
2017-10-10T05:10:46.068Z,15.77
2017-10-10T05:13:12.663Z,13.87
2017-10-10T05:15:39.251Z,15.83
2017-10-10T05:18:05.875Z,14.53
2017-10-10T05:20:32.475Z,15.10
2017-10-10T05:22:59.069Z,15.17
2017-10-10T05:25:25.658Z,15.17
2017-10-10T05:27:52.247Z,15.43
2017-10-10T05:30:18.957Z,14.97
2017-10-10T05:32:45.654Z,15.60
2017-10-10T05:35:18.532Z,15.40
2017-10-10T05:37:45.132Z,15.57
2017-10-10T05:40:11.755Z,16.53
2017-10-10T05:42:38.323Z,16.17
2017-10-10T05:45:05.070Z,15.67
2017-10-10T05:47:31.701Z,15.40
2017-10-10T05:49:58.575Z,15.70
2017-10-10T05:52:25.283Z,14.47
2017-10-10T05:54:51.872Z,15.20
2017-10-10T05:57:18.454Z,14.47
2017-10-10T05:59:45.058Z,14.60
2017-10-10T06:02:11.674Z,14.50
2017-10-10T06:04:38.270Z,14.60
2017-10-10T06:07:04.867Z,15.53
2017-10-10T06:09:31.454Z,14.47
2017-10-10T06:11:58.067Z,15.90
2017-10-10T06:14:24.651Z,15.03
2017-10-10T06:16:51.337Z,15.50
2017-10-10T06:19:17.915Z,15.17
2017-10-10T06:21:44.502Z,15.40
2017-10-10T06:24:11.406Z,15.10
2017-10-10T06:26:38.008Z,14.97
2017-10-10T06:29:04.594Z,15.30
2017-10-10T06:31:31.194Z,14.43
2017-10-10T06:33:57.783Z,15.83
2017-10-10T06:36:24.416Z,16.77
2017-10-10T06:38:50.991Z,15.23
2017-10-10T06:41:17.586Z,16.07
2017-10-10T06:43:44.188Z,15.20
2017-10-10T06:46:10.774Z,14.67
2017-10-10T06:51:10.665Z,14.80
2017-10-10T06:53:37.265Z,15.00
2017-10-10T06:56:03.901Z,14.90
2017-10-10T06:58:30.476Z,14.60
2017-10-10T07:00:57.078Z,13.77
2017-10-10T07:03:23.683Z,14.33
2017-10-10T07:05:50.277Z,13.57
2017-10-10T07:08:16.874Z,14.27
2017-10-10T07:10:43.495Z,14.57
2017-10-10T07:13:10.358Z,14.60
2017-10-10T07:15:36.938Z,14.37
2017-10-10T07:18:03.570Z,14.60
2017-10-10T07:20:30.195Z,14.67
2017-10-10T07:22:56.790Z,15.30
2017-10-10T07:25:23.403Z,16.30
2017-10-10T07:27:50.015Z,15.73
2017-10-10T07:30:16.613Z,15.10
2017-10-10T07:32:43.214Z,16.40
2017-10-10T07:35:12.998Z,15.70
2017-10-10T07:37:39.707Z,17.00
2017-10-10T07:40:12.383Z,15.13
2017-10-10T07:42:38.982Z,16.60
2017-10-10T07:45:12.490Z,16.73
2017-10-10T07:47:42.767Z,16.10
2017-10-10T07:50:09.359Z,16.47
2017-10-10T07:52:35.950Z,17.90
2017-10-10T07:55:02.550Z,17.60
2017-10-10T07:57:29.144Z,17.47
2017-10-10T07:59:55.847Z,17.07
2017-10-10T08:02:22.438Z,17.40
2017-10-10T08:04:49.030Z,18.43
2017-10-10T08:07:15.627Z,18.43
2017-10-10T08:09:42.214Z,18.27
2017-10-10T08:12:08.965Z,18.00
2017-10-10T08:14:35.551Z,18.00
2017-10-10T08:17:02.147Z,18.00
2017-10-10T08:19:28.756Z,18.83
2017-10-10T08:21:55.347Z,18.80
2017-10-10T08:24:21.954Z,17.40
2017-10-10T08:26:48.568Z,18.47
2017-10-10T08:29:15.162Z,19.13
2017-10-10T08:31:41.758Z,18.43
2017-10-10T08:34:08.483Z,18.87
2017-10-10T08:36:35.207Z,19.70
2017-10-10T08:39:01.803Z,18.37
2017-10-10T08:41:28.392Z,20.10
2017-10-10T08:43:54.994Z,20.20
2017-10-10T08:46:21.582Z,19.77
2017-10-10T08:48:48.374Z,20.10
2017-10-10T08:51:14.970Z,19.80
2017-10-10T08:53:41.559Z,20.60
2017-10-10T08:56:08.166Z,19.10
2017-10-10T08:58:34.760Z,16.87
2017-10-10T09:01:01.461Z,19.03
2017-10-10T09:03:28.062Z,17.83
2017-10-10T09:05:54.646Z,19.13
2017-10-10T09:08:21.247Z,19.00
2017-10-10T09:10:47.851Z,16.20
2017-10-10T09:13:14.534Z,17.80
2017-10-10T09:15:41.127Z,15.50
2017-10-10T09:18:07.719Z,17.83
2017-10-10T09:20:34.322Z,15.67
2017-10-10T09:23:00.920Z,16.17
2017-10-10T09:25:27.519Z,17.30
2017-10-10T09:27:54.107Z,16.17
2017-10-10T09:30:20.702Z,16.07
2017-10-10T09:32:47.304Z,16.37
2017-10-10T09:35:13.903Z,15.03
2017-10-10T09:37:40.602Z,16.23
2017-10-10T09:40:07.209Z,14.97
2017-10-10T09:42:33.783Z,14.50
2017-10-10T09:45:00.382Z,15.20
2017-10-10T09:47:27.020Z,14.37
2017-10-10T09:49:53.728Z,14.20
2017-10-10T09:52:20.331Z,14.17
2017-10-10T09:54:46.921Z,14.93
2017-10-10T09:57:13.516Z,14.60
2017-10-10T09:59:40.106Z,14.47
2017-10-10T10:02:09.867Z,15.80
2017-10-10T10:04:39.895Z,15.17
2017-10-10T10:07:06.589Z,15.70
2017-10-10T10:09:39.722Z,16.70
2017-10-10T10:12:12.535Z,14.37
2017-10-10T10:14:41.118Z,16.60
2017-10-10T10:17:08.566Z,14.50
2017-10-10T10:19:35.163Z,14.43
2017-10-10T10:22:11.584Z,15.43
2017-10-10T10:24:38.154Z,14.80
2017-10-10T10:27:04.758Z,13.50
2017-10-10T10:29:31.351Z,13.63
2017-10-10T10:31:57.940Z,13.70
2017-10-10T10:34:24.536Z,15.40
2017-10-10T10:36:51.126Z,15.80
2017-10-10T10:39:17.825Z,15.03
2017-10-10T10:41:50.815Z,14.23
2017-10-10T10:44:20.725Z,14.20
2017-10-10T10:46:47.319Z,14.50
2017-10-10T10:49:19.847Z,13.90
2017-10-10T10:51:46.440Z,15.70
2017-10-10T10:54:20.339Z,14.77
2017-10-10T10:56:46.935Z,14.40
2017-10-10T10:59:13.519Z,14.67
2017-10-10T11:01:40.118Z,13.60
2017-10-10T11:04:10.394Z,14.13
2017-10-10T11:06:40.182Z,13.70
2017-10-10T11:09:10.089Z,13.83
2017-10-10T11:11:36.671Z,14.43
2017-10-10T11:14:03.288Z,13.03
2017-10-10T11:16:29.950Z,13.50
2017-10-10T11:18:56.557Z,13.27
2017-10-10T11:21:30.143Z,12.93
2017-10-10T11:23:56.742Z,12.20
2017-10-10T11:26:23.335Z,11.50
2017-10-10T11:28:49.956Z,12.20
2017-10-10T11:31:16.604Z,13.07
2017-10-10T11:33:43.303Z,10.17
2017-10-10T11:36:16.407Z,9.97
2017-10-10T11:38:42.990Z,10.60
2017-10-10T11:41:09.654Z,11.90
2017-10-10T11:43:36.274Z,11.77
2017-10-10T11:46:02.868Z,10.07
2017-10-10T11:48:29.472Z,10.73
2017-10-10T11:50:56.077Z,10.30
2017-10-10T11:53:22.667Z,9.40
2017-10-10T11:55:49.259Z,10.40
2017-10-10T11:58:15.850Z,10.07
2017-10-10T12:00:42.594Z,9.80
2017-10-10T12:03:09.188Z,9.53
2017-10-10T12:05:35.774Z,10.37
2017-10-10T12:08:02.374Z,8.63
2017-10-10T12:10:28.959Z,8.33
2017-10-10T12:12:55.566Z,8.90
2017-10-10T12:15:22.167Z,9.30
2017-10-10T12:17:48.767Z,8.47
2017-10-10T12:20:15.350Z,7.60
2017-10-10T12:22:41.939Z,7.87
2017-10-10T12:25:08.525Z,7.87
2017-10-10T12:27:35.226Z,8.33
2017-10-10T12:30:01.815Z,7.50
2017-10-10T12:32:28.422Z,7.13
2017-10-10T12:34:55.015Z,7.00
2017-10-10T12:37:21.599Z,7.20
2017-10-10T12:39:48.214Z,7.50
2017-10-10T12:42:14.797Z,7.40
2017-10-10T12:44:41.375Z,6.77
2017-10-10T12:47:07.963Z,6.90
2017-10-10T12:49:34.553Z,7.43
2017-10-10T12:52:01.139Z,6.53
2017-10-10T12:54:27.714Z,6.90
2017-10-10T12:56:54.298Z,6.90
2017-10-10T12:59:20.897Z,6.40
2017-10-10T13:01:47.476Z,6.67
2017-10-10T13:04:14.211Z,7.13
2017-10-10T13:06:40.787Z,5.93
2017-10-10T13:09:07.371Z,6.30
2017-10-10T13:11:33.967Z,6.40
2017-10-10T13:14:00.548Z,6.50
2017-10-10T13:16:27.527Z,6.53
2017-10-10T13:18:54.110Z,5.90
2017-10-10T13:21:20.682Z,6.67
2017-10-10T13:23:47.324Z,8.07
2017-10-10T13:26:13.911Z,6.10
2017-10-10T13:28:40.508Z,7.13
2017-10-10T13:31:07.218Z,7.20
2017-10-10T13:33:33.791Z,6.60
2017-10-10T13:36:00.382Z,7.83
2017-10-10T13:38:26.971Z,6.43
2017-10-10T13:40:53.855Z,7.63
2017-10-10T13:43:20.443Z,7.30
2017-10-10T13:45:47.102Z,6.93
2017-10-10T13:48:13.699Z,6.33
2017-10-10T13:50:40.283Z,7.57
2017-10-10T13:53:06.875Z,6.80
2017-10-10T13:55:33.458Z,6.67
2017-10-10T13:58:00.144Z,7.80
2017-10-10T14:00:26.719Z,6.83
2017-10-10T14:02:53.299Z,7.30
2017-10-10T14:05:19.994Z,7.60
2017-10-10T14:07:46.588Z,7.50
2017-10-10T14:10:18.999Z,9.27
2017-10-10T14:12:45.622Z,8.50
2017-10-10T14:15:22.581Z,8.77
2017-10-10T14:17:52.770Z,9.60
2017-10-10T14:20:22.455Z,7.70
2017-10-10T14:22:49.176Z,7.60
2017-10-10T14:25:23.659Z,8.07
2017-10-10T14:27:53.806Z,7.70
2017-10-10T14:30:20.513Z,6.30
2017-10-10T14:32:47.229Z,6.53
2017-10-10T14:35:24.531Z,6.80
2017-10-10T14:37:51.103Z,6.33
2017-10-10T14:40:17.702Z,5.60
2017-10-10T14:42:44.383Z,6.50
2017-10-10T14:45:19.263Z,8.33
2017-10-10T14:47:52.205Z,5.60
2017-10-10T14:50:18.851Z,7.50
2017-10-10T14:52:45.548Z,6.27
2017-10-10T14:55:12.126Z,6.33
2017-10-10T14:57:38.718Z,6.40
2017-10-10T15:00:05.307Z,6.80
2017-10-10T15:02:31.890Z,7.77
2017-10-10T15:04:58.586Z,6.50
2017-10-10T15:07:25.183Z,6.93
2017-10-10T15:09:51.778Z,6.47
2017-10-10T15:12:18.442Z,6.10
2017-10-10T15:14:45.025Z,5.50
2017-10-10T15:17:11.627Z,6.30
2017-10-10T15:19:38.212Z,4.87
2017-10-10T15:22:04.798Z,5.80
2017-10-10T15:24:31.386Z,5.33
2017-10-10T15:26:57.966Z,6.13
2017-10-10T15:29:35.267Z,5.83
2017-10-10T15:32:05.085Z,5.97
2017-10-10T15:34:31.654Z,6.90
2017-10-10T15:36:58.338Z,7.13
2017-10-10T15:39:34.615Z,6.70
2017-10-10T15:42:01.219Z,7.67
2017-10-10T15:44:27.949Z,7.50
2017-10-10T15:47:04.698Z,7.10
2017-10-10T15:49:31.283Z,8.63
2017-10-10T15:51:57.871Z,7.90
2017-10-10T15:54:24.472Z,8.60
2017-10-10T15:56:51.058Z,7.57
2017-10-10T15:59:17.646Z,6.60
2017-10-10T16:01:44.255Z,8.27
2017-10-10T16:04:10.857Z,6.40
2017-10-10T16:06:37.463Z,6.63
2017-10-10T16:09:04.103Z,7.10
2017-10-10T16:11:30.714Z,6.90
2017-10-10T16:13:57.287Z,6.73
2017-10-10T16:16:23.923Z,6.50
2017-10-10T16:18:50.506Z,7.90
2017-10-10T16:21:24.571Z,8.53
2017-10-10T16:23:51.233Z,6.83
2017-10-10T16:26:17.814Z,6.90
2017-10-10T16:28:44.398Z,7.80
2017-10-10T16:31:10.995Z,7.97
2017-10-10T16:33:37.579Z,5.93
2017-10-10T16:36:04.476Z,6.30
2017-10-10T16:38:31.158Z,6.10
2017-10-10T16:40:57.743Z,5.40
2017-10-10T16:43:24.349Z,5.60
2017-10-10T16:45:52.714Z,5.23
2017-10-10T16:48:19.297Z,5.10
2017-10-10T16:50:45.902Z,5.70
2017-10-10T16:53:12.832Z,5.47
2017-10-10T16:55:39.417Z,5.30
2017-10-10T16:58:06.000Z,5.40
2017-10-10T17:00:32.587Z,5.20
2017-10-10T17:02:59.188Z,5.47
2017-10-10T17:05:25.914Z,5.53
2017-10-10T17:07:52.498Z,4.90
2017-10-10T17:10:19.083Z,5.17
2017-10-10T17:12:45.670Z,6.30
2017-10-10T17:15:12.262Z,7.70
2017-10-10T17:17:38.866Z,8.27
2017-10-10T17:20:05.451Z,7.10
2017-10-10T17:22:32.162Z,8.60
2017-10-10T17:24:58.742Z,8.37
2017-10-10T17:27:25.326Z,8.83
2017-10-10T17:29:51.942Z,7.63
2017-10-10T17:32:18.510Z,7.93
2017-10-10T17:34:45.211Z,6.23
2017-10-10T17:37:11.787Z,6.40
2017-10-10T17:39:46.582Z,6.93
2017-10-10T17:42:16.703Z,7.70
2017-10-10T17:44:43.282Z,7.03
2017-10-10T17:47:09.870Z,7.50
2017-10-10T17:49:36.454Z,7.37
2017-10-10T17:52:03.095Z,7.30
2017-10-10T17:54:29.679Z,6.67
2017-10-10T17:56:56.264Z,7.40
2017-10-10T17:59:22.855Z,7.10
2017-10-10T18:01:49.442Z,5.60
2017-10-10T18:04:16.178Z,6.77
2017-10-10T18:06:42.762Z,6.07
2017-10-10T18:09:15.267Z,4.63
2017-10-10T18:11:41.879Z,4.50
2017-10-10T18:14:14.775Z,4.80
2017-10-10T18:16:41.377Z,4.83
2017-10-10T18:19:14.440Z,4.30
2017-10-10T18:21:44.382Z,4.80
2017-10-10T18:24:14.575Z,4.80
2017-10-10T18:26:44.385Z,5.20
2017-10-10T18:29:10.982Z,4.63
2017-10-10T18:31:37.558Z,4.53
2017-10-10T18:34:04.152Z,4.73
2017-10-10T18:36:30.765Z,4.30
2017-10-10T18:38:57.342Z,4.43
2017-10-10T18:41:23.942Z,3.50
2017-10-10T18:43:50.528Z,4.10
2017-10-10T18:46:17.123Z,4.00
2017-10-10T18:48:43.707Z,3.90
2017-10-10T18:51:10.287Z,3.43
2017-10-10T18:53:36.871Z,3.83
2017-10-10T18:56:03.460Z,3.50
2017-10-10T18:58:30.042Z,3.50
2017-10-10T19:00:56.629Z,3.60
2017-10-10T19:03:23.214Z,4.13
2017-10-10T19:05:49.819Z,4.07
2017-10-10T19:08:16.406Z,3.90
2017-10-10T19:10:43.351Z,3.50
2017-10-10T19:13:09.927Z,3.50
2017-10-10T19:15:36.506Z,4.43
2017-10-10T19:18:03.515Z,4.60
2017-10-10T19:20:30.098Z,3.30
2017-10-10T19:22:56.669Z,3.83
2017-10-10T19:25:23.303Z,4.27
2017-10-10T19:27:49.963Z,3.97
2017-10-10T19:30:16.855Z,4.33
2017-10-10T19:32:43.439Z,4.13
2017-10-10T19:35:10.023Z,4.10
2017-10-10T19:37:36.611Z,4.00
2017-10-10T19:40:03.198Z,4.60
2017-10-10T19:42:29.894Z,4.00
2017-10-10T19:44:56.470Z,4.00
2017-10-10T19:47:23.052Z,3.60
2017-10-10T19:49:49.638Z,4.10
2017-10-10T19:52:16.227Z,3.77
2017-10-10T19:54:42.910Z,3.80
2017-10-10T19:57:09.491Z,3.00
2017-10-10T19:59:36.119Z,3.80
2017-10-10T20:02:02.714Z,3.57
2017-10-10T20:04:29.302Z,3.90
2017-10-10T20:06:55.987Z,3.50
2017-10-10T20:09:22.572Z,3.30
2017-10-10T20:14:33.029Z,3.37
2017-10-10T20:17:05.953Z,3.23
2017-10-10T20:19:32.534Z,3.00
2017-10-10T20:22:04.987Z,3.20
2017-10-10T20:24:31.591Z,3.30
2017-10-10T20:26:58.163Z,3.90
2017-10-10T20:29:26.202Z,3.53
2017-10-10T20:31:52.806Z,3.47
2017-10-10T20:34:25.661Z,3.30
2017-10-10T20:36:52.265Z,3.80
2017-10-10T20:39:18.851Z,3.60
2017-10-10T20:41:45.420Z,3.73
2017-10-10T20:44:12.014Z,3.90
2017-10-10T20:46:38.598Z,3.97
2017-10-10T20:49:11.579Z,3.83
2017-10-10T20:51:38.153Z,4.17
2017-10-10T20:54:04.743Z,3.70
2017-10-10T20:56:31.380Z,3.93
2017-10-10T20:58:58.418Z,4.00
2017-10-10T21:01:25.046Z,4.30
2017-10-10T21:03:58.010Z,3.90
2017-10-10T21:06:24.690Z,3.97
2017-10-10T21:08:57.989Z,4.00
2017-10-10T21:11:24.691Z,3.93
2017-10-10T21:13:51.307Z,4.03
2017-10-10T21:16:18.039Z,3.93
2017-10-10T21:18:44.611Z,3.60
2017-10-10T21:21:11.189Z,3.93
2017-10-10T21:23:37.926Z,4.10
2017-10-10T21:26:04.512Z,4.20
2017-10-10T21:28:31.086Z,3.90
2017-10-10T21:30:57.670Z,4.20
2017-10-10T21:33:24.248Z,4.27
2017-10-10T21:35:50.992Z,4.63
2017-10-10T21:38:17.569Z,4.53
2017-10-10T21:40:44.153Z,4.23
2017-10-10T21:43:10.749Z,7.37
2017-10-10T21:45:37.322Z,5.90
2017-10-10T21:48:03.918Z,4.50
2017-10-10T21:50:30.490Z,4.80
2017-10-10T21:52:57.069Z,5.00
2017-10-10T21:55:23.658Z,3.77
2017-10-10T21:57:50.239Z,4.33
2017-10-10T22:00:16.830Z,3.80
2017-10-10T22:02:43.414Z,3.90
2017-10-10T22:05:09.997Z,4.30
2017-10-10T22:07:36.590Z,4.67
2017-10-10T22:10:03.183Z,4.37
2017-10-10T22:12:29.878Z,4.20
2017-10-10T22:14:56.454Z,4.17
2017-10-10T22:17:23.032Z,4.10
2017-10-10T22:19:49.614Z,4.20
2017-10-10T22:22:16.193Z,4.40
2017-10-10T22:24:42.930Z,4.70
2017-10-10T22:27:09.515Z,4.33
2017-10-10T22:29:36.115Z,4.73
2017-10-10T22:32:02.693Z,4.80
2017-10-10T22:34:29.282Z,4.87
2017-10-10T22:36:55.889Z,4.57
2017-10-10T22:39:22.466Z,4.60
2017-10-10T22:41:49.049Z,4.53
2017-10-10T22:44:15.621Z,4.40
2017-10-10T22:46:42.207Z,4.60
2017-10-10T22:49:08.807Z,4.53
2017-10-10T22:51:35.385Z,5.30
2017-10-10T22:54:01.971Z,4.80
2017-10-10T22:56:28.553Z,4.63
2017-10-10T22:58:55.129Z,4.70
2017-10-10T23:01:21.734Z,4.53
2017-10-10T23:03:48.392Z,4.77
2017-10-10T23:06:14.958Z,4.90
2017-10-10T23:08:41.554Z,4.60
2017-10-10T23:11:08.130Z,4.53
2017-10-10T23:13:34.749Z,5.30
2017-10-10T23:16:01.331Z,4.83
2017-10-10T23:18:27.905Z,4.63
2017-10-10T23:20:54.491Z,4.10
2017-10-10T23:23:21.169Z,4.80
2017-10-10T23:25:47.744Z,4.37
2017-10-10T23:28:14.325Z,4.67
2017-10-10T23:30:40.929Z,5.00
2017-10-10T23:33:07.493Z,4.00
2017-10-10T23:35:34.077Z,4.70
2017-10-10T23:38:00.818Z,4.50
2017-10-10T23:40:27.393Z,4.73
2017-10-10T23:42:53.983Z,5.17
2017-10-10T23:45:20.667Z,4.83
2017-10-10T23:47:47.246Z,4.90
2017-10-10T23:50:13.827Z,5.43
2017-10-10T23:52:40.560Z,4.60
2017-10-10T23:55:07.142Z,4.93
2017-10-10T23:57:33.722Z,5.40
